createdAt,value
2022-08-05T00:00:51.606Z,18.75
2022-08-05T00:03:18.197Z,19.85
2022-08-05T00:06:06.539Z,18.40
2022-08-05T00:08:34.846Z,16.17
2022-08-05T00:11:05.523Z,17.10
2022-08-05T00:13:52.910Z,15.18
2022-08-05T00:16:36.007Z,16.48
2022-08-05T00:19:03.926Z,12.10
2022-08-05T00:21:30.752Z,18.33
2022-08-05T00:24:10.155Z,13.27
2022-08-05T00:26:38.119Z,16.50
2022-08-05T00:29:04.684Z,14.13
2022-08-05T00:31:41.340Z,16.60
2022-08-05T00:34:53.414Z,25.27
2022-08-05T00:37:10.309Z,16.95
2022-08-05T00:39:44.330Z,12.45
2022-08-05T00:42:33.008Z,14.40
2022-08-05T00:45:00.167Z,14.68
2022-08-05T00:47:31.664Z,19.83
2022-08-05T00:50:13.409Z,16.55
2022-08-05T00:52:40.158Z,17.83
2022-08-05T00:55:06.947Z,11.00
2022-08-05T00:57:55.468Z,14.80
2022-08-05T01:00:20.230Z,12.07
2022-08-05T01:02:50.221Z,13.00
2022-08-05T01:05:16.868Z,17.52
2022-08-05T01:08:40.760Z,19.15
2022-08-05T01:10:41.823Z,11.13
2022-08-05T01:13:57.421Z,11.00
2022-08-05T01:16:40.273Z,9.27
2022-08-05T01:19:56.319Z,7.40
2022-08-05T01:22:58.236Z,11.13
2022-08-05T01:25:55.993Z,10.30
2022-08-05T01:28:39.518Z,8.18
2022-08-05T01:31:28.952Z,10.52
2022-08-05T01:34:13.956Z,10.43
2022-08-05T01:36:47.658Z,12.38
2022-08-05T01:39:45.637Z,13.88
2022-08-05T01:42:06.389Z,13.98
2022-08-05T01:44:37.663Z,14.98
2022-08-05T01:47:05.217Z,17.77
2022-08-05T01:50:00.446Z,16.23
2022-08-05T01:52:22.918Z,15.68
2022-08-05T01:54:53.315Z,18.95
2022-08-05T01:58:10.214Z,17.65
2022-08-05T02:00:15.213Z,15.43
2022-08-05T02:02:53.709Z,17.88
2022-08-05T02:05:25.174Z,19.67
2022-08-05T02:07:59.925Z,21.83
2022-08-05T02:10:32.925Z,16.33
2022-08-05T02:13:19.032Z,19.40
2022-08-05T02:15:53.933Z,20.05
2022-08-05T02:18:34.573Z,22.08
2022-08-05T02:21:14.784Z,19.95
2022-08-05T02:23:44.473Z,26.35
2022-08-05T02:26:17.222Z,20.08
2022-08-05T02:28:46.363Z,18.77
2022-08-05T02:31:21.743Z,20.80
2022-08-05T02:33:58.078Z,24.23
2022-08-05T02:36:27.553Z,21.33
2022-08-05T02:38:58.733Z,12.80
2022-08-05T02:41:29.032Z,16.70
2022-08-05T02:44:13.569Z,17.80
2022-08-05T02:46:58.702Z,19.17
2022-08-05T02:49:36.059Z,17.90
2022-08-05T02:52:09.135Z,22.58
2022-08-05T02:54:37.697Z,23.15
2022-08-05T02:58:12.297Z,27.45
2022-08-05T02:59:59.475Z,25.30
2022-08-05T03:02:33.927Z,26.52
2022-08-05T03:05:02.583Z,23.25
2022-08-05T03:08:00.559Z,20.98
2022-08-05T03:10:21.858Z,18.95
2022-08-05T03:12:52.128Z,21.45
2022-08-05T03:15:20.588Z,17.52
2022-08-05T03:17:47.109Z,20.27
2022-08-05T03:20:13.968Z,17.58
2022-08-05T03:22:46.896Z,20.25
2022-08-05T03:25:33.078Z,18.63
2022-08-05T03:28:08.455Z,13.73
2022-08-05T03:30:35.786Z,18.15
2022-08-05T03:33:04.383Z,16.75
2022-08-05T03:35:34.041Z,17.45
2022-08-05T03:38:10.503Z,13.15
2022-08-05T03:40:45.222Z,17.10
2022-08-05T03:43:59.257Z,12.80
2022-08-05T03:46:01.764Z,15.63
2022-08-05T03:48:29.663Z,13.02
2022-08-05T03:52:37.042Z,14.00
2022-08-05T03:55:51.843Z,14.82
2022-08-05T03:57:16.589Z,22.98
2022-08-05T03:59:55.001Z,12.65
2022-08-05T04:02:38.976Z,15.35
2022-08-05T04:05:12.908Z,18.75
2022-08-05T04:07:57.919Z,24.08
2022-08-05T04:10:30.856Z,18.80
2022-08-05T04:13:00.589Z,19.42
2022-08-05T04:15:33.172Z,20.13
2022-08-05T04:20:36.142Z,18.05
2022-08-05T04:23:02.716Z,20.77
2022-08-05T04:25:56.472Z,17.55
2022-08-05T04:28:17.490Z,21.10
2022-08-05T04:30:44.795Z,18.25
2022-08-05T04:33:12.183Z,26.23
2022-08-05T04:36:16.661Z,18.38
2022-08-05T04:38:39.869Z,20.05
2022-08-05T04:41:09.635Z,23.50
2022-08-05T04:43:38.058Z,22.92
2022-08-05T04:46:13.256Z,23.13
2022-08-05T04:48:39.963Z,26.90
2022-08-05T04:51:11.159Z,24.77
2022-08-05T04:53:38.568Z,18.42
2022-08-05T04:56:32.275Z,14.32
2022-08-05T04:58:54.436Z,13.18
2022-08-05T05:02:06.139Z,14.80
2022-08-05T05:04:07.627Z,17.33
2022-08-05T05:06:39.618Z,9.23
2022-08-05T05:09:14.260Z,10.75
2022-08-05T05:11:55.541Z,11.57
2022-08-05T05:14:31.315Z,7.80
2022-08-05T05:17:01.805Z,5.95
2022-08-05T05:19:36.858Z,12.32
2022-08-05T05:22:24.283Z,10.15
2022-08-05T05:27:44.525Z,8.25
2022-08-05T05:30:29.508Z,7.40
2022-08-05T05:35:37.763Z,12.32
2022-08-05T05:38:09.254Z,11.05
2022-08-05T05:40:45.062Z,7.15
2022-08-05T05:43:28.078Z,7.93
2022-08-05T05:46:03.685Z,9.13
2022-08-05T05:48:32.079Z,4.47
2022-08-05T05:51:14.929Z,7.72
2022-08-05T05:53:54.102Z,7.25
2022-08-05T05:56:33.065Z,5.95
2022-08-05T05:59:03.292Z,6.63
2022-08-05T06:01:38.197Z,7.63
2022-08-05T06:04:11.668Z,6.57
2022-08-05T06:06:41.747Z,5.70
2022-08-05T06:09:08.685Z,6.65
2022-08-05T06:11:35.527Z,5.88
2022-08-05T06:14:06.184Z,20.75
2022-08-05T06:16:37.306Z,6.22
2022-08-05T06:19:05.999Z,4.65
2022-08-05T06:21:37.658Z,8.02
2022-08-05T06:24:11.524Z,8.20
2022-08-05T06:26:39.137Z,10.68
2022-08-05T06:29:23.827Z,10.30
2022-08-05T06:31:52.724Z,6.90
2022-08-05T06:34:20.055Z,8.73
2022-08-05T06:36:58.243Z,10.60
2022-08-05T06:39:27.860Z,8.88
2022-08-05T06:42:02.038Z,13.27
2022-08-05T06:44:30.783Z,13.07
2022-08-05T06:46:57.454Z,4.90
2022-08-05T06:50:00.138Z,7.68
2022-08-05T06:52:37.258Z,5.53
2022-08-05T06:54:57.678Z,8.10
2022-08-05T06:57:57.360Z,8.38
2022-08-05T07:00:11.339Z,6.03
2022-08-05T07:02:46.376Z,7.00
2022-08-05T07:05:18.650Z,7.38
2022-08-05T07:07:48.908Z,7.82
2022-08-05T07:10:16.498Z,7.00
2022-08-05T07:13:02.612Z,7.13
2022-08-05T07:16:01.286Z,7.72
2022-08-05T07:18:31.861Z,6.15
2022-08-05T07:20:58.695Z,10.25
2022-08-05T07:23:33.720Z,9.20
2022-08-05T07:26:03.555Z,8.15
2022-08-05T07:28:30.147Z,5.22
2022-08-05T07:30:56.857Z,10.48
2022-08-05T07:33:35.183Z,4.82
2022-08-05T07:36:21.170Z,7.38
2022-08-05T07:38:49.031Z,7.28
2022-08-05T07:42:14.678Z,5.75
2022-08-05T07:44:14.353Z,8.23
2022-08-05T07:46:48.539Z,6.63
2022-08-05T07:49:18.164Z,7.05
2022-08-05T07:51:48.635Z,5.72
2022-08-05T07:54:23.216Z,4.50
2022-08-05T07:57:13.575Z,8.45
2022-08-05T07:59:41.202Z,4.78
2022-08-05T08:02:15.435Z,4.63
2022-08-05T08:04:45.069Z,7.38
2022-08-05T08:07:12.249Z,7.60
2022-08-05T08:09:38.825Z,7.60
2022-08-05T08:12:19.959Z,6.57
2022-08-05T08:14:52.677Z,7.05
2022-08-05T08:17:21.227Z,5.65
2022-08-05T08:20:21.167Z,8.80
2022-08-05T08:22:35.687Z,5.93
2022-08-05T08:25:03.182Z,7.53
2022-08-05T08:27:39.980Z,5.18
2022-08-05T08:30:28.607Z,5.85
2022-08-05T08:33:02.627Z,6.80
2022-08-05T08:35:34.968Z,7.18
2022-08-05T08:38:07.518Z,6.05
2022-08-05T08:40:35.392Z,4.75
2022-08-05T08:45:16.652Z,5.60
2022-08-05T08:45:52.904Z,8.05
2022-08-05T08:48:36.196Z,8.27
2022-08-05T08:51:54.528Z,4.32
2022-08-05T08:53:55.215Z,5.82
2022-08-05T08:56:23.598Z,5.72
2022-08-05T08:58:54.342Z,6.47
2022-08-05T09:01:21.730Z,6.15
2022-08-05T09:03:54.602Z,6.13
2022-08-05T09:06:24.255Z,5.70
2022-08-05T09:08:55.971Z,8.32
2022-08-05T09:11:52.748Z,6.38
2022-08-05T09:14:56.488Z,6.15
2022-08-05T09:17:00.439Z,5.80
2022-08-05T09:19:36.271Z,4.82
2022-08-05T09:22:31.285Z,4.05
2022-08-05T09:25:14.055Z,9.88
2022-08-05T09:28:04.082Z,4.35
2022-08-05T09:30:34.565Z,5.50
2022-08-05T09:33:02.322Z,4.88
2022-08-05T09:35:29.458Z,5.00
2022-08-05T09:38:12.853Z,10.93
2022-08-05T09:40:51.794Z,5.55
2022-08-05T09:43:41.322Z,5.07
2022-08-05T09:46:32.770Z,4.38
2022-08-05T09:49:06.727Z,5.07
2022-08-05T09:51:40.035Z,4.07
2022-08-05T09:54:09.445Z,4.60
2022-08-05T09:56:38.090Z,7.93
2022-08-05T09:59:07.727Z,6.63
2022-08-05T10:01:36.963Z,5.40
2022-08-05T10:04:16.199Z,6.05
2022-08-05T10:06:59.264Z,3.80
2022-08-05T10:09:29.242Z,5.80
2022-08-05T10:12:18.664Z,5.05
2022-08-05T10:15:16.225Z,6.28
2022-08-05T10:17:54.442Z,4.70
2022-08-05T10:20:23.930Z,6.70
2022-08-05T10:22:52.661Z,8.07
2022-08-05T10:25:19.613Z,5.75
2022-08-05T10:28:13.272Z,4.90
2022-08-05T10:31:20.479Z,3.90
2022-08-05T10:33:28.890Z,4.95
2022-08-05T10:35:59.718Z,5.72
2022-08-05T10:38:29.163Z,5.77
2022-08-05T10:41:23.444Z,4.03
2022-08-05T10:44:07.051Z,6.93
2022-08-05T10:46:54.690Z,5.03
2022-08-05T10:49:27.594Z,6.07
2022-08-05T10:52:03.347Z,6.00
2022-08-05T10:54:56.987Z,6.05
2022-08-05T10:57:31.747Z,6.40
2022-08-05T11:00:19.081Z,7.70
2022-08-05T11:03:24.811Z,9.40
2022-08-05T11:06:08.494Z,7.00
2022-08-05T11:09:10.747Z,6.25
2022-08-05T11:11:52.886Z,8.10
2022-08-05T11:14:57.886Z,6.00
2022-08-05T11:18:00.349Z,7.78
2022-08-05T11:20:32.490Z,6.93
2022-08-05T11:23:05.822Z,9.25
2022-08-05T11:26:04.763Z,9.45
2022-08-05T11:28:22.266Z,11.40
2022-08-05T11:30:55.515Z,9.15
2022-08-05T11:33:43.789Z,4.35
2022-08-05T11:36:34.729Z,7.40
2022-08-05T11:39:09.190Z,4.55
2022-08-05T11:42:02.010Z,5.85
2022-08-05T11:44:40.506Z,7.50
2022-08-05T11:47:11.115Z,8.55
2022-08-05T11:49:43.268Z,6.28
2022-08-05T11:52:24.347Z,5.95
2022-08-05T11:54:57.486Z,7.78
2022-08-05T11:57:39.360Z,5.97
2022-08-05T12:00:30.982Z,6.65
2022-08-05T12:02:57.852Z,7.13
2022-08-05T12:05:32.227Z,6.20
2022-08-05T12:08:10.053Z,5.72
2022-08-05T12:10:45.472Z,9.32
2022-08-05T12:13:18.953Z,5.88
2022-08-05T12:16:15.028Z,7.72
2022-08-05T12:18:52.427Z,7.88
2022-08-05T12:21:30.621Z,8.48
2022-08-05T12:24:07.121Z,6.38
2022-08-05T12:26:50.000Z,8.50
2022-08-05T12:29:22.998Z,6.07
2022-08-05T12:31:59.740Z,7.22
2022-08-05T12:34:33.377Z,7.40
2022-08-05T12:37:10.820Z,6.90
2022-08-05T12:42:19.634Z,6.05
2022-08-05T12:44:47.565Z,7.22
2022-08-05T12:47:26.225Z,4.95
2022-08-05T12:50:03.448Z,7.68
2022-08-05T12:52:41.692Z,7.40
2022-08-05T12:55:25.357Z,5.65
2022-08-05T12:58:51.395Z,6.47
2022-08-05T13:02:01.736Z,6.85
2022-08-05T13:03:43.067Z,6.43
2022-08-05T13:06:16.128Z,6.07
2022-08-05T13:08:52.010Z,7.97
2022-08-05T13:11:59.967Z,6.82
2022-08-05T13:14:19.566Z,5.75
2022-08-05T13:16:56.390Z,7.70
2022-08-05T13:19:27.252Z,8.40
2022-08-05T13:22:13.832Z,8.57
2022-08-05T13:24:57.991Z,6.38
2022-08-05T13:27:38.716Z,6.28
2022-08-05T13:30:35.105Z,5.38
2022-08-05T13:32:56.495Z,6.93
2022-08-05T13:35:42.734Z,4.03
2022-08-05T13:38:14.528Z,7.22
2022-08-05T13:40:55.192Z,4.68
2022-08-05T13:43:22.373Z,6.30
2022-08-05T13:45:49.174Z,5.95
2022-08-05T13:48:57.601Z,8.07
2022-08-05T13:51:09.554Z,7.15
2022-08-05T13:53:47.728Z,5.13
2022-08-05T13:56:18.474Z,6.93
2022-08-05T13:58:53.476Z,4.60
2022-08-05T14:01:25.946Z,6.95
2022-08-05T14:04:22.096Z,7.03
2022-08-05T14:07:11.897Z,9.18
2022-08-05T14:09:46.092Z,5.93
2022-08-05T14:12:17.872Z,5.72
2022-08-05T14:14:58.559Z,3.95
2022-08-05T14:17:26.618Z,9.15
2022-08-05T14:20:00.905Z,5.63
2022-08-05T14:22:30.467Z,5.57
2022-08-05T14:25:01.708Z,5.72
2022-08-05T14:27:32.867Z,4.63
2022-08-05T14:29:59.690Z,4.15
2022-08-05T14:32:27.754Z,6.95
2022-08-05T14:34:57.042Z,5.55
2022-08-05T14:37:49.039Z,4.22
2022-08-05T14:40:14.071Z,5.50
2022-08-05T14:42:43.324Z,7.30
2022-08-05T14:45:10.529Z,3.38
2022-08-05T14:48:03.700Z,6.93
2022-08-05T14:50:25.339Z,7.53
2022-08-05T14:52:58.762Z,3.42
2022-08-05T14:55:39.580Z,3.40
2022-08-05T14:58:11.575Z,5.33
2022-08-05T15:00:59.092Z,2.50
2022-08-05T15:03:33.778Z,2.65
2022-08-05T15:06:08.014Z,2.67
2022-08-05T15:08:59.146Z,4.13
2022-08-05T15:11:51.196Z,5.18
2022-08-05T15:14:20.038Z,3.58
2022-08-05T15:17:00.777Z,3.92
2022-08-05T15:19:27.380Z,4.88
2022-08-05T15:21:54.516Z,4.28
2022-08-05T15:24:27.030Z,3.63
2022-08-05T15:26:53.602Z,6.30
2022-08-05T15:29:22.421Z,4.10
2022-08-05T15:31:53.103Z,6.03
2022-08-05T15:34:33.161Z,3.42
2022-08-05T15:37:07.021Z,3.70
2022-08-05T15:41:04.618Z,3.08
2022-08-05T15:42:53.549Z,2.75
2022-08-05T15:45:15.334Z,5.47
2022-08-05T15:47:43.578Z,4.72
2022-08-05T15:50:15.275Z,4.50
2022-08-05T15:52:52.948Z,3.35
2022-08-05T15:55:24.867Z,4.53
2022-08-05T15:58:08.309Z,5.57
2022-08-05T16:00:50.553Z,2.88
2022-08-05T16:03:21.938Z,3.75
2022-08-05T16:05:52.568Z,7.63
2022-08-05T16:08:19.417Z,3.80
2022-08-05T16:10:46.052Z,4.53
2022-08-05T16:13:23.239Z,3.40
2022-08-05T16:15:51.897Z,5.22
2022-08-05T16:18:19.251Z,3.92
2022-08-05T16:20:46.491Z,3.22
2022-08-05T16:23:13.063Z,6.63
2022-08-05T16:25:40.153Z,8.77
2022-08-05T16:28:09.695Z,4.25
2022-08-05T16:30:37.075Z,5.32
2022-08-05T16:33:03.811Z,4.72
2022-08-05T16:35:33.694Z,4.65
2022-08-05T16:38:18.813Z,8.50
2022-08-05T16:41:00.578Z,3.55
2022-08-05T16:43:32.626Z,4.35
2022-08-05T16:46:06.977Z,4.97
2022-08-05T16:48:39.607Z,3.90
2022-08-05T16:51:09.684Z,6.43
2022-08-05T16:54:04.304Z,6.78
2022-08-05T16:56:27.537Z,4.93
2022-08-05T16:58:54.105Z,5.30
2022-08-05T17:01:20.957Z,5.78
2022-08-05T17:03:47.700Z,6.50
2022-08-05T17:06:16.430Z,4.95
2022-08-05T17:08:52.913Z,4.32
2022-08-05T17:11:25.357Z,5.40
2022-08-05T17:14:00.695Z,11.57
2022-08-05T17:16:35.902Z,7.10
2022-08-05T17:19:07.689Z,12.70
2022-08-05T17:21:37.426Z,4.28
2022-08-05T17:24:28.419Z,6.25
2022-08-05T17:26:56.693Z,6.95
2022-08-05T17:29:33.059Z,5.82
2022-08-05T17:32:11.953Z,8.80
2022-08-05T17:34:47.747Z,5.43
2022-08-05T17:37:41.889Z,3.88
2022-08-05T17:40:10.379Z,3.47
2022-08-05T17:42:41.342Z,4.53
2022-08-05T17:45:20.287Z,9.25
2022-08-05T17:47:53.502Z,6.32
2022-08-05T17:50:28.715Z,6.20
2022-08-05T17:52:59.047Z,6.78
2022-08-05T17:55:34.137Z,5.93
2022-08-05T17:58:05.895Z,6.20
2022-08-05T18:00:34.564Z,5.00
2022-08-05T18:03:02.130Z,3.83
2022-08-05T18:05:35.248Z,9.88
2022-08-05T18:08:02.799Z,5.40
2022-08-05T18:10:32.048Z,3.65
2022-08-05T18:13:00.522Z,6.78
2022-08-05T18:15:31.215Z,6.45
2022-08-05T18:18:05.679Z,5.57
2022-08-05T18:20:37.896Z,5.13
2022-08-05T18:23:11.378Z,6.90
2022-08-05T18:25:44.064Z,10.60
2022-08-05T18:28:12.155Z,4.72
2022-08-05T18:30:51.054Z,7.22
2022-08-05T18:33:22.706Z,6.15
2022-08-05T18:36:03.944Z,9.25
2022-08-05T18:41:55.981Z,7.60
2022-08-05T18:43:48.536Z,7.30
2022-08-05T18:46:19.564Z,4.90
2022-08-05T18:48:53.683Z,7.10
2022-08-05T18:52:05.611Z,8.90
2022-08-05T18:54:31.400Z,5.13
2022-08-05T18:57:01.987Z,7.80
2022-08-05T18:59:44.278Z,4.18
2022-08-05T19:02:27.446Z,4.05
2022-08-05T19:05:02.167Z,6.95
2022-08-05T19:07:45.614Z,6.65
2022-08-05T19:10:14.372Z,6.70
2022-08-05T19:12:41.373Z,4.40
2022-08-05T19:15:10.706Z,6.57
2022-08-05T19:18:08.549Z,8.50
2022-08-05T19:20:41.600Z,4.40
2022-08-05T19:23:22.609Z,5.95
2022-08-05T19:26:02.070Z,5.28
2022-08-05T19:28:30.782Z,5.97
2022-08-05T19:30:58.148Z,6.47
2022-08-05T19:33:36.395Z,4.35
2022-08-05T19:36:06.597Z,4.65
2022-08-05T19:38:37.307Z,7.63
2022-08-05T19:41:07.054Z,6.03
2022-08-05T19:44:04.583Z,5.25
2022-08-05T19:46:30.169Z,6.32
2022-08-05T19:49:01.139Z,9.38
2022-08-05T19:52:05.821Z,4.43
2022-08-05T19:54:22.849Z,7.38
2022-08-05T19:56:58.744Z,5.47
2022-08-05T19:59:55.505Z,8.77
2022-08-05T20:02:12.995Z,7.05
2022-08-05T20:04:43.167Z,5.18
2022-08-05T20:07:13.281Z,4.32
2022-08-05T20:09:54.657Z,7.43
2022-08-05T20:12:22.717Z,5.90
2022-08-05T20:14:52.257Z,5.35
2022-08-05T20:17:23.602Z,6.05
2022-08-05T20:19:57.336Z,8.38
2022-08-05T20:22:26.974Z,5.68
2022-08-05T20:24:54.620Z,6.38
2022-08-05T20:27:26.726Z,7.57
2022-08-05T20:29:58.205Z,7.20
2022-08-05T20:32:27.052Z,6.85
2022-08-05T20:34:54.504Z,3.28
2022-08-05T20:38:04.742Z,5.47
2022-08-05T20:40:08.843Z,4.85
2022-08-05T20:42:35.640Z,4.47
2022-08-05T20:45:02.702Z,6.55
2022-08-05T20:47:32.102Z,8.90
2022-08-05T20:49:59.448Z,7.18
2022-08-05T20:52:26.336Z,4.75
2022-08-05T20:54:59.161Z,6.72
2022-08-05T20:57:43.941Z,7.85
2022-08-05T21:00:35.086Z,3.10
2022-08-05T21:03:07.385Z,8.02
2022-08-05T21:05:48.083Z,6.18
2022-08-05T21:08:28.192Z,8.82
2022-08-05T21:11:09.903Z,5.50
2022-08-05T21:13:56.501Z,3.67
2022-08-05T21:16:29.595Z,7.35
2022-08-05T21:19:00.527Z,5.28
2022-08-05T21:21:39.220Z,5.57
2022-08-05T21:24:12.714Z,7.05
2022-08-05T21:26:41.344Z,8.13
2022-08-05T21:29:10.144Z,5.50
2022-08-05T21:31:43.499Z,6.55
2022-08-05T21:34:11.039Z,6.72
2022-08-05T21:36:38.146Z,10.07
2022-08-05T21:39:04.911Z,9.82
2022-08-05T21:41:33.926Z,10.43
2022-08-05T21:44:04.101Z,10.52
2022-08-05T21:46:34.229Z,5.70
2022-08-05T21:49:04.610Z,9.63
2022-08-05T21:52:16.015Z,5.20
2022-08-05T21:54:28.007Z,8.25
2022-08-05T21:57:29.265Z,5.53
2022-08-05T22:00:01.919Z,8.73
2022-08-05T22:02:30.366Z,9.00
2022-08-05T22:04:58.391Z,7.95
2022-08-05T22:07:40.042Z,6.10
2022-08-05T22:10:14.104Z,5.57
2022-08-05T22:12:44.975Z,5.13
2022-08-05T22:16:01.293Z,5.25
2022-08-05T22:18:05.064Z,8.55
2022-08-05T22:20:31.783Z,8.95
2022-08-05T22:23:21.231Z,5.13
2022-08-05T22:26:09.648Z,5.57
2022-08-05T22:28:38.714Z,5.63
2022-08-05T22:31:05.982Z,9.32
2022-08-05T22:33:57.134Z,3.78
2022-08-05T22:36:24.126Z,6.30
2022-08-05T22:38:51.515Z,4.20
2022-08-05T22:42:05.522Z,6.00
2022-08-05T22:44:08.643Z,6.00
2022-08-05T22:46:39.764Z,5.10
2022-08-05T22:49:23.020Z,6.18
2022-08-05T22:52:06.019Z,14.32
2022-08-05T22:54:37.671Z,6.63
2022-08-05T22:57:06.271Z,5.53
2022-08-05T22:59:43.569Z,8.15
2022-08-05T23:02:18.200Z,7.10
2022-08-05T23:04:52.156Z,4.15
2022-08-05T23:07:22.162Z,6.97
2022-08-05T23:09:57.805Z,8.23
2022-08-05T23:12:32.732Z,5.50
2022-08-05T23:15:03.565Z,3.78
2022-08-05T23:17:34.405Z,6.53
2022-08-05T23:20:15.567Z,3.35
2022-08-05T23:22:47.742Z,4.35
2022-08-05T23:25:54.939Z,4.95
2022-08-05T23:28:06.941Z,4.20
2022-08-05T23:30:40.226Z,5.78
2022-08-05T23:33:16.189Z,7.63
2022-08-05T23:35:50.226Z,4.68
2022-08-05T23:38:17.034Z,3.85
2022-08-05T23:40:49.571Z,5.28
2022-08-05T23:43:25.387Z,6.50
2022-08-05T23:46:03.879Z,5.80
2022-08-05T23:48:30.435Z,3.45
2022-08-05T23:50:57.002Z,4.70
2022-08-05T23:53:28.569Z,5.05
2022-08-05T23:56:12.016Z,3.28
2022-08-05T23:58:38.737Z,5.85
